createdAt,value
2022-10-03T00:01:12.904Z,0.60
2022-10-03T00:04:25.806Z,0.50
2022-10-03T00:07:37.997Z,0.60
2022-10-03T00:10:16.466Z,0.70
2022-10-03T00:13:12.966Z,1.10
2022-10-03T00:16:15.006Z,1.48
2022-10-03T00:18:52.440Z,1.50
2022-10-03T00:21:53.411Z,2.30
2022-10-03T00:24:53.276Z,3.30
2022-10-03T00:27:33.929Z,4.90
2022-10-03T00:30:16.906Z,5.40
2022-10-03T00:33:19.259Z,5.22
2022-10-03T00:36:11.946Z,5.30
2022-10-03T00:39:11.202Z,5.13
2022-10-03T00:42:18.958Z,4.80
2022-10-03T00:45:20.530Z,5.50
2022-10-03T00:48:07.642Z,4.88
2022-10-03T00:50:55.421Z,4.60
2022-10-03T00:53:43.657Z,4.30
2022-10-03T00:56:51.337Z,4.20
2022-10-03T00:59:48.234Z,3.80
2022-10-03T01:02:52.503Z,3.70
2022-10-03T01:05:37.445Z,3.20
2022-10-03T01:08:17.465Z,3.27
2022-10-03T01:10:44.458Z,3.30
2022-10-03T01:13:32.623Z,3.60
2022-10-03T01:16:27.448Z,3.40
2022-10-03T01:18:57.243Z,3.50
2022-10-03T01:21:48.230Z,3.60
2022-10-03T01:24:23.932Z,3.30
2022-10-03T01:27:10.331Z,3.80
2022-10-03T01:30:09.260Z,3.50
2022-10-03T01:33:10.570Z,3.08
2022-10-03T01:35:46.768Z,3.13
2022-10-03T01:38:27.057Z,3.00
2022-10-03T01:41:17.113Z,3.50
2022-10-03T01:43:54.721Z,3.30
2022-10-03T01:46:38.422Z,3.13
2022-10-03T01:49:35.747Z,2.90
2022-10-03T01:52:11.640Z,2.80
2022-10-03T01:54:46.441Z,3.00
2022-10-03T01:57:25.602Z,2.60
2022-10-03T02:00:08.485Z,2.40
2022-10-03T02:02:44.079Z,2.63
2022-10-03T02:05:42.884Z,3.00
2022-10-03T02:08:44.754Z,2.85
2022-10-03T02:11:29.360Z,2.83
2022-10-03T02:14:20.093Z,2.80
2022-10-03T02:16:59.726Z,2.70
2022-10-03T02:19:29.714Z,2.83
2022-10-03T02:21:58.958Z,3.65
2022-10-03T02:24:42.385Z,3.72
2022-10-03T02:27:30.638Z,4.32
2022-10-03T02:30:04.024Z,4.85
2022-10-03T02:33:01.613Z,4.50
2022-10-03T02:35:59.248Z,5.30
2022-10-03T02:38:57.070Z,5.78
2022-10-03T02:41:44.756Z,5.90
2022-10-03T02:44:14.429Z,6.10
2022-10-03T02:47:19.600Z,5.90
2022-10-03T02:50:15.455Z,7.10
2022-10-03T02:53:03.673Z,7.80
2022-10-03T02:55:48.834Z,7.70
2022-10-03T02:58:56.917Z,8.00
2022-10-03T03:01:32.482Z,7.80
2022-10-03T03:04:08.508Z,7.88
2022-10-03T03:07:10.844Z,8.60
2022-10-03T03:09:40.549Z,8.32
2022-10-03T03:12:27.258Z,8.40
2022-10-03T03:15:02.885Z,8.05
2022-10-03T03:17:30.963Z,7.95
2022-10-03T03:20:13.803Z,8.10
2022-10-03T03:22:56.797Z,7.70
2022-10-03T03:25:53.146Z,7.50
2022-10-03T03:28:28.702Z,7.47
2022-10-03T03:31:12.784Z,7.55
2022-10-03T03:34:24.031Z,7.40
2022-10-03T03:37:02.105Z,6.95
2022-10-03T03:39:42.221Z,6.78
2022-10-03T03:42:22.334Z,7.70
2022-10-03T03:45:07.670Z,7.18
2022-10-03T03:48:04.907Z,6.83
2022-10-03T03:50:57.242Z,6.70
2022-10-03T03:53:46.386Z,7.13
2022-10-03T03:56:48.312Z,6.90
2022-10-03T03:59:33.306Z,6.03
2022-10-03T04:02:05.231Z,6.50
2022-10-03T04:04:46.177Z,5.80
2022-10-03T04:07:38.909Z,5.80
2022-10-03T04:10:17.668Z,5.80
2022-10-03T04:13:16.945Z,5.45
2022-10-03T04:16:49.742Z,5.30
2022-10-03T04:19:26.077Z,4.97
2022-10-03T04:22:04.973Z,4.80
2022-10-03T04:24:44.064Z,5.60
2022-10-03T04:27:25.933Z,5.05
2022-10-03T04:30:07.957Z,5.20
2022-10-03T04:32:46.590Z,5.03
2022-10-03T04:35:44.156Z,5.03
2022-10-03T04:38:46.886Z,5.30
2022-10-03T04:41:27.726Z,4.95
2022-10-03T04:43:58.466Z,4.20
2022-10-03T04:46:49.584Z,4.40
2022-10-03T04:49:36.587Z,4.10
2022-10-03T04:52:45.946Z,4.10
2022-10-03T04:55:15.949Z,3.90
2022-10-03T04:57:47.670Z,3.95
2022-10-03T05:00:23.604Z,3.67
2022-10-03T05:03:11.357Z,4.00
2022-10-03T05:05:56.730Z,4.15
2022-10-03T05:09:04.553Z,3.83
2022-10-03T05:11:37.683Z,3.80
2022-10-03T05:14:49.967Z,3.63
2022-10-03T05:17:37.317Z,3.40
2022-10-03T05:20:37.850Z,3.35
2022-10-03T05:23:15.036Z,3.40
2022-10-03T05:29:45.389Z,3.22
2022-10-03T05:32:38.610Z,2.90
2022-10-03T05:35:14.116Z,3.13
2022-10-03T05:37:59.321Z,2.80
2022-10-03T05:40:28.941Z,3.30
2022-10-03T05:43:01.390Z,3.50
2022-10-03T05:45:46.760Z,2.97
2022-10-03T05:48:37.975Z,3.10
2022-10-03T05:51:39.519Z,3.70
2022-10-03T05:54:27.401Z,3.45
2022-10-03T05:57:15.390Z,3.80
2022-10-03T06:00:00.173Z,3.70
2022-10-03T06:02:51.060Z,3.80
2022-10-03T06:05:39.281Z,3.60
2022-10-03T06:08:35.182Z,3.10
2022-10-03T06:11:14.315Z,3.00
2022-10-03T06:13:43.866Z,3.20
2022-10-03T06:16:37.892Z,2.92
2022-10-03T06:19:23.502Z,3.65
2022-10-03T06:22:27.801Z,3.40
2022-10-03T06:25:20.085Z,3.17
2022-10-03T06:28:20.454Z,3.28
2022-10-03T06:31:18.551Z,3.50
2022-10-03T06:34:09.992Z,2.90
2022-10-03T06:36:49.698Z,2.80
2022-10-03T06:39:58.682Z,2.50
2022-10-03T06:42:50.427Z,3.08
2022-10-03T06:45:40.728Z,2.70
2022-10-03T06:48:22.582Z,3.10
2022-10-03T06:51:30.464Z,2.85
2022-10-03T06:54:34.537Z,3.30
2022-10-03T06:57:45.561Z,4.05
2022-10-03T07:00:38.750Z,4.10
2022-10-03T07:03:18.774Z,4.40
2022-10-03T07:06:20.314Z,4.30
2022-10-03T07:09:08.501Z,4.90
2022-10-03T07:11:44.106Z,4.60
2022-10-03T07:14:35.298Z,5.93
2022-10-03T07:17:22.963Z,4.47
2022-10-03T07:20:02.862Z,4.60
2022-10-03T07:23:00.159Z,4.78
2022-10-03T07:25:48.269Z,4.90
2022-10-03T07:28:49.986Z,4.40
2022-10-03T07:31:55.821Z,4.67
2022-10-03T07:34:41.316Z,5.50
2022-10-03T07:37:35.569Z,5.90
2022-10-03T07:40:05.821Z,5.60
2022-10-03T07:42:47.916Z,4.72
2022-10-03T07:45:37.486Z,5.20
2022-10-03T07:48:41.012Z,5.80
2022-10-03T07:51:26.113Z,5.70
2022-10-03T07:54:14.075Z,5.80
2022-10-03T07:57:00.682Z,5.40
2022-10-03T08:00:06.718Z,6.20
2022-10-03T08:03:04.155Z,6.03
2022-10-03T08:05:54.595Z,5.75
2022-10-03T08:08:56.953Z,5.43
2022-10-03T08:11:26.621Z,5.20
2022-10-03T08:14:20.659Z,5.15
2022-10-03T08:17:14.186Z,4.80
2022-10-03T08:20:05.658Z,4.93
2022-10-03T08:22:47.468Z,5.10
2022-10-03T08:25:14.630Z,4.22
2022-10-03T08:27:44.617Z,3.60
2022-10-03T08:30:25.346Z,3.70
2022-10-03T08:33:14.283Z,2.50
2022-10-03T08:36:28.858Z,2.60
2022-10-03T08:39:14.008Z,2.40
2022-10-03T08:42:22.837Z,3.30
2022-10-03T08:45:11.498Z,3.90
2022-10-03T08:48:13.946Z,3.77
2022-10-03T08:50:49.217Z,3.50
2022-10-03T08:53:37.670Z,3.30
2022-10-03T08:56:27.211Z,3.60
2022-10-03T08:58:57.000Z,3.35
2022-10-03T09:01:29.751Z,3.30
2022-10-03T09:04:22.674Z,3.50
2022-10-03T09:07:28.030Z,3.40
2022-10-03T09:10:19.344Z,3.38
2022-10-03T09:12:46.214Z,3.92
2022-10-03T09:15:41.302Z,3.60
2022-10-03T09:18:45.866Z,2.40
2022-10-03T09:21:33.777Z,2.88
2022-10-03T09:24:25.371Z,2.72
2022-10-03T09:27:14.678Z,2.60
2022-10-03T09:29:59.742Z,2.50
2022-10-03T09:32:54.366Z,2.60
2022-10-03T09:35:52.090Z,2.33
2022-10-03T09:38:37.577Z,2.70
2022-10-03T09:41:25.612Z,2.60
2022-10-03T09:44:11.260Z,2.78
2022-10-03T09:47:27.868Z,2.50
2022-10-03T09:50:12.698Z,2.30
2022-10-03T09:52:50.092Z,2.20
2022-10-03T09:55:36.397Z,2.30
2022-10-03T09:58:25.231Z,2.50
2022-10-03T10:01:00.652Z,2.38
2022-10-03T10:03:49.245Z,2.03
2022-10-03T10:06:34.700Z,1.98
2022-10-03T10:09:22.381Z,1.80
2022-10-03T10:12:26.703Z,2.10
2022-10-03T10:15:08.734Z,1.90
2022-10-03T10:17:56.291Z,2.20
2022-10-03T10:21:01.086Z,1.60
2022-10-03T10:23:46.893Z,2.10
2022-10-03T10:26:35.157Z,1.90
2022-10-03T10:29:08.849Z,2.00
2022-10-03T10:31:45.157Z,2.22
2022-10-03T10:34:30.600Z,1.88
2022-10-03T10:37:33.093Z,1.80
2022-10-03T10:40:12.673Z,1.90
2022-10-03T10:43:14.802Z,1.70
2022-10-03T10:45:57.422Z,1.92
2022-10-03T10:48:48.596Z,1.52
2022-10-03T13:01:46.781Z,4.20
2022-10-03T13:04:19.843Z,3.80
2022-10-03T13:07:05.805Z,3.10
2022-10-03T13:09:32.987Z,3.20
2022-10-03T13:12:11.681Z,2.92
2022-10-03T13:15:16.489Z,2.90
2022-10-03T13:18:00.954Z,2.83
2022-10-03T13:20:34.533Z,3.08
2022-10-03T13:23:26.117Z,3.47
2022-10-03T13:25:56.850Z,2.80
2022-10-03T13:28:49.925Z,2.90
2022-10-03T13:31:43.429Z,3.10
2022-10-03T13:34:20.606Z,3.08
2022-10-03T13:37:04.956Z,3.35
2022-10-03T13:39:42.556Z,4.10
2022-10-03T13:42:16.805Z,3.42
2022-10-03T13:44:57.357Z,3.80
2022-10-03T13:47:55.711Z,3.20
2022-10-03T13:50:31.093Z,3.25
2022-10-03T13:53:23.941Z,4.07
2022-10-03T13:56:01.641Z,3.90
2022-10-03T13:58:40.057Z,3.90
2022-10-03T14:01:35.070Z,3.50
2022-10-03T14:04:07.679Z,3.65
2022-10-03T14:07:09.666Z,3.90
2022-10-03T14:09:42.142Z,4.00
2022-10-03T14:12:15.101Z,3.88
2022-10-03T14:15:15.344Z,4.10
2022-10-03T14:18:01.787Z,3.80
2022-10-03T14:20:39.638Z,3.65
2022-10-03T14:23:37.628Z,3.78
2022-10-03T14:26:32.917Z,3.70
2022-10-03T14:29:21.402Z,3.95
2022-10-03T14:32:28.367Z,3.75
2022-10-03T14:35:37.846Z,3.92
2022-10-03T14:38:23.640Z,3.70
2022-10-03T14:40:57.054Z,4.15
2022-10-03T14:43:46.250Z,4.25
2022-10-03T14:46:15.837Z,3.80
2022-10-03T14:48:50.168Z,3.80
2022-10-03T14:51:30.627Z,4.00
2022-10-03T14:54:05.702Z,3.72
2022-10-03T14:56:44.297Z,4.20
2022-10-03T14:59:33.839Z,3.90
2022-10-03T15:02:22.828Z,4.10
2022-10-03T15:04:53.851Z,3.90
2022-10-03T15:07:36.246Z,4.30
2022-10-03T15:10:07.301Z,4.10
2022-10-03T15:12:36.878Z,4.00
2022-10-03T15:15:12.865Z,4.30
2022-10-03T15:17:53.406Z,4.20
2022-10-03T15:20:26.833Z,3.97
2022-10-03T15:23:01.162Z,4.40
2022-10-03T15:25:41.491Z,4.03
2022-10-03T15:28:23.051Z,3.92
2022-10-03T15:30:52.446Z,4.00
2022-10-03T15:33:22.409Z,3.75
2022-10-03T15:35:55.021Z,3.70
2022-10-03T15:38:26.549Z,4.20
2022-10-03T15:41:07.098Z,3.90
2022-10-03T15:43:58.028Z,3.40
2022-10-03T15:46:34.827Z,3.90
2022-10-03T15:49:07.441Z,3.70
2022-10-03T15:51:38.577Z,3.90
2022-10-03T15:54:09.212Z,4.07
2022-10-03T15:56:46.066Z,3.50
2022-10-03T15:59:28.341Z,3.50
2022-10-03T16:01:56.537Z,3.47
2022-10-03T16:04:25.086Z,4.10
2022-10-03T16:07:03.203Z,3.70
2022-10-03T16:09:36.770Z,3.50
2022-10-03T16:12:03.846Z,3.80
2022-10-03T16:14:51.450Z,3.80
2022-10-03T16:17:21.160Z,4.00
2022-10-03T16:20:17.840Z,4.30
2022-10-03T16:22:57.270Z,4.00
2022-10-03T16:25:59.701Z,3.57
2022-10-03T16:28:45.293Z,3.55
2022-10-03T16:31:22.503Z,3.73
2022-10-03T16:33:59.860Z,3.60
2022-10-03T16:36:27.121Z,3.80
2022-10-03T16:39:00.029Z,4.00
2022-10-03T16:41:31.846Z,3.80
2022-10-03T16:44:18.303Z,3.90
2022-10-03T16:46:46.558Z,4.20
2022-10-03T16:49:44.028Z,3.90
2022-10-03T16:52:13.649Z,3.50
2022-10-03T16:54:43.892Z,4.00
2022-10-03T16:57:52.711Z,3.92
2022-10-03T17:00:56.302Z,3.83
2022-10-03T17:03:55.065Z,3.67
2022-10-03T17:06:30.325Z,3.80
2022-10-03T17:09:02.690Z,3.80
2022-10-03T17:11:34.324Z,4.22
2022-10-03T17:14:05.549Z,3.90
2022-10-03T17:16:44.074Z,4.20
2022-10-03T17:19:32.286Z,3.92
2022-10-03T17:22:33.782Z,4.05
2022-10-03T17:25:18.655Z,3.97
2022-10-03T17:27:49.678Z,4.20
2022-10-03T17:30:40.002Z,3.83
2022-10-03T17:33:35.890Z,3.77
2022-10-03T17:36:20.707Z,3.87
2022-10-03T17:38:51.458Z,4.10
2022-10-03T17:41:32.193Z,4.10
2022-10-03T17:44:12.057Z,3.80
2022-10-03T17:46:58.399Z,3.85
2022-10-03T17:49:38.827Z,4.13
2022-10-03T17:52:12.456Z,3.88
2022-10-03T17:54:40.554Z,4.30
2022-10-03T17:57:24.176Z,4.20
2022-10-03T17:59:59.005Z,4.40
2022-10-03T18:02:49.223Z,3.90
2022-10-03T18:05:20.641Z,4.00
2022-10-03T18:07:51.126Z,4.30
2022-10-03T18:10:31.238Z,4.30
2022-10-03T18:13:02.070Z,4.10
2022-10-03T18:15:49.070Z,4.18
2022-10-03T18:18:28.489Z,4.20
2022-10-03T18:21:27.384Z,4.60
2022-10-03T18:23:55.607Z,4.32
2022-10-03T18:26:35.281Z,4.30
2022-10-03T18:29:04.934Z,4.27
2022-10-03T18:31:35.265Z,4.50
2022-10-03T18:34:15.112Z,4.20
2022-10-03T18:36:49.552Z,4.80
2022-10-03T18:39:29.834Z,5.00
2022-10-03T18:42:02.123Z,4.90
2022-10-03T18:44:32.533Z,5.00
2022-10-03T18:47:02.208Z,5.20
2022-10-03T18:49:34.555Z,5.07
2022-10-03T18:52:10.516Z,4.70
2022-10-03T18:54:50.434Z,5.70
2022-10-03T18:57:25.332Z,6.60
2022-10-03T19:00:01.872Z,6.35
2022-10-03T19:02:44.605Z,6.20
2022-10-03T19:05:35.421Z,7.10
2022-10-03T19:08:08.237Z,6.80
2022-10-03T19:11:08.845Z,7.05
2022-10-03T19:13:58.373Z,7.55
2022-10-03T19:16:45.235Z,7.57
2022-10-03T19:19:23.537Z,6.90
2022-10-03T19:21:50.879Z,6.80
2022-10-03T19:24:46.209Z,7.37
2022-10-03T19:27:33.471Z,6.40
2022-10-03T19:30:00.482Z,6.10
2022-10-03T19:32:47.757Z,6.00
2022-10-03T19:35:19.898Z,8.23
2022-10-03T19:38:03.847Z,6.10
2022-10-03T19:41:00.164Z,6.60
2022-10-03T19:43:37.416Z,6.60
2022-10-03T19:46:11.450Z,6.78
2022-10-03T19:49:03.486Z,6.60
2022-10-03T19:51:30.370Z,6.05
2022-10-03T19:53:58.101Z,7.03
2022-10-03T19:56:27.046Z,7.20
2022-10-03T19:59:13.627Z,7.28
2022-10-03T20:01:48.961Z,6.85
2022-10-03T20:04:31.894Z,6.80
2022-10-03T20:06:59.519Z,7.10
2022-10-03T20:09:28.423Z,7.37
2022-10-03T20:12:05.918Z,6.85
2022-10-03T20:14:43.395Z,6.80
2022-10-03T20:17:20.530Z,6.13
2022-10-03T20:19:47.539Z,6.60
2022-10-03T20:22:15.061Z,6.13
2022-10-03T20:24:45.926Z,6.63
2022-10-03T20:27:18.390Z,5.70
2022-10-03T20:30:07.118Z,6.50
2022-10-03T20:32:39.009Z,5.90
2022-10-03T20:35:06.613Z,6.13
2022-10-03T20:37:36.962Z,6.20
2022-10-03T20:40:19.033Z,6.03
2022-10-03T20:42:48.319Z,5.70
2022-10-03T20:45:25.597Z,5.60
2022-10-03T20:48:06.241Z,5.78
2022-10-03T20:50:50.474Z,5.97
2022-10-03T20:53:20.711Z,5.32
2022-10-03T20:55:59.730Z,5.33
2022-10-03T20:58:56.914Z,5.30
2022-10-03T21:01:26.923Z,5.00
2022-10-03T21:04:02.696Z,5.07
2022-10-03T21:06:37.139Z,5.00
2022-10-03T21:09:06.625Z,5.30
2022-10-03T21:11:38.603Z,5.03
2022-10-03T21:14:19.782Z,5.30
2022-10-03T21:16:50.921Z,4.60
2022-10-03T21:19:26.238Z,5.00
2022-10-03T21:21:59.127Z,5.18
2022-10-03T21:24:30.839Z,5.00
2022-10-03T21:27:01.647Z,4.85
2022-10-03T21:29:31.775Z,5.65
2022-10-03T21:32:19.537Z,5.70
2022-10-03T21:35:01.112Z,5.20
2022-10-03T21:37:35.764Z,5.20
2022-10-03T21:40:12.981Z,5.10
2022-10-03T21:43:14.923Z,5.40
2022-10-03T21:45:56.637Z,5.45
2022-10-03T21:48:38.285Z,5.60
2022-10-03T21:51:33.087Z,5.10
2022-10-03T21:54:27.718Z,4.82
2022-10-03T21:57:20.176Z,5.00
2022-10-03T21:59:49.752Z,4.90
2022-10-03T22:02:43.710Z,5.13
2022-10-03T22:05:18.121Z,4.90
2022-10-03T22:07:46.148Z,4.82
2022-10-03T22:10:34.858Z,5.70
2022-10-03T22:13:09.421Z,5.30
2022-10-03T22:15:48.735Z,5.13
2022-10-03T22:18:19.370Z,5.55
2022-10-03T22:21:15.153Z,6.10
2022-10-03T22:24:02.873Z,6.00
2022-10-03T22:26:41.226Z,5.87
2022-10-03T22:29:37.896Z,5.60
2022-10-03T22:32:34.107Z,5.68
2022-10-03T22:35:27.717Z,5.40
2022-10-03T22:37:56.697Z,5.68
2022-10-03T22:40:24.699Z,5.50
2022-10-03T22:42:56.491Z,5.30
2022-10-03T22:45:29.715Z,5.25
2022-10-03T22:48:00.526Z,6.20
2022-10-03T22:50:33.310Z,5.50
2022-10-03T22:53:02.628Z,5.80
2022-10-03T22:55:30.522Z,5.80
2022-10-03T22:58:00.237Z,5.88
2022-10-03T23:00:32.255Z,5.00
2022-10-03T23:03:23.814Z,5.90
2022-10-03T23:06:09.357Z,5.80
2022-10-03T23:08:50.886Z,6.00
2022-10-03T23:11:27.441Z,6.05
2022-10-03T23:13:57.839Z,5.70
2022-10-03T23:16:36.614Z,6.20
2022-10-03T23:19:33.851Z,5.80
2022-10-03T23:22:01.103Z,5.50
2022-10-03T23:24:27.937Z,6.00
2022-10-03T23:27:04.484Z,5.60
2022-10-03T23:29:31.519Z,5.80
2022-10-03T23:32:04.181Z,6.17
2022-10-03T23:34:40.014Z,5.93
2022-10-03T23:37:15.421Z,5.82
2022-10-03T23:40:20.250Z,6.00
2022-10-03T23:43:14.438Z,5.95
2022-10-03T23:45:43.064Z,5.60
2022-10-03T23:48:16.956Z,5.70
2022-10-03T23:51:01.379Z,6.03
2022-10-03T23:53:44.498Z,6.10
2022-10-03T23:56:23.603Z,5.35
2022-10-03T23:59:05.174Z,5.50
